createdAt,value
2018-09-13T00:00:03.132Z,15.8
2018-09-13T00:15:02.477Z,15.8
2018-09-13T00:30:02.887Z,15.7
2018-09-13T00:45:03.233Z,15.7
2018-09-13T01:00:02.500Z,15.6
2018-09-13T01:15:02.840Z,15.6
2018-09-13T01:30:03.211Z,15.5
2018-09-13T01:45:02.575Z,15.4
2018-09-13T02:00:02.905Z,15.4
2018-09-13T02:15:03.209Z,15.3
2018-09-13T02:30:02.594Z,15.2
2018-09-13T02:45:02.923Z,15.2
2018-09-13T03:00:03.294Z,15.1
2018-09-13T03:15:02.622Z,15.1
2018-09-13T03:30:03.017Z,15
2018-09-13T03:45:02.323Z,14.9
2018-09-13T04:00:02.625Z,14.9
2018-09-13T04:15:02.899Z,14.9
2018-09-13T04:30:02.303Z,14.8
2018-09-13T04:45:02.610Z,14.8
2018-09-13T05:00:02.964Z,14.8
2018-09-13T05:15:03.277Z,14.7
2018-09-13T05:30:02.846Z,14.6
2018-09-13T05:45:03.351Z,14.6
2018-09-13T06:00:02.991Z,14.6
2018-09-13T06:15:02.331Z,14.6
2018-09-13T06:30:02.781Z,14.6
2018-09-13T06:45:03.104Z,14.6
2018-09-13T07:00:02.432Z,14.6
2018-09-13T07:15:02.732Z,14.6
2018-09-13T07:30:03.125Z,14.6
2018-09-13T07:45:02.432Z,14.6
2018-09-13T08:00:02.721Z,14.6
2018-09-13T08:15:03.091Z,14.7
2018-09-13T08:30:02.519Z,14.7
2018-09-13T08:45:02.897Z,14.8
2018-09-13T09:00:03.222Z,14.8
2018-09-13T09:15:02.529Z,14.9
2018-09-13T09:30:02.937Z,14.9
2018-09-13T09:45:03.275Z,14.9
2018-09-13T10:00:02.639Z,15
2018-09-13T10:15:03.015Z,15
2018-09-13T10:30:02.428Z,15.1
2018-09-13T10:45:02.741Z,15.1
2018-09-13T11:00:03.028Z,15.2
2018-09-13T11:15:02.312Z,15.2
2018-09-13T11:30:02.734Z,15.3
2018-09-13T11:45:03.030Z,15.4
2018-09-13T12:00:02.405Z,15.4
2018-09-13T12:15:02.715Z,15.4
2018-09-13T12:30:03.104Z,15.6
2018-09-13T12:45:02.495Z,15.6
2018-09-13T13:00:02.810Z,15.6
2018-09-13T13:15:03.130Z,15.7
2018-09-13T13:30:02.584Z,15.8
2018-09-13T13:45:02.887Z,15.8
2018-09-13T14:00:03.245Z,15.9
2018-09-13T14:15:02.581Z,15.9
2018-09-13T14:30:03.001Z,16
2018-09-13T14:45:02.316Z,16
2018-09-13T15:00:02.754Z,16.1
2018-09-13T15:15:03.093Z,16.1
2018-09-13T15:30:02.592Z,16.1
2018-09-13T15:45:03.012Z,16.2
2018-09-13T16:00:02.332Z,16.2
2018-09-13T16:15:02.661Z,16.2
2018-09-13T16:30:03.104Z,16.2
2018-09-13T16:45:02.512Z,16.2
2018-09-13T17:00:02.861Z,16.2
2018-09-13T17:15:03.237Z,16.2
2018-09-13T17:30:02.608Z,16.2
2018-09-13T17:45:02.911Z,16.2
2018-09-13T18:00:03.236Z,16.2
2018-09-13T18:15:02.633Z,16.2
2018-09-13T18:30:03.093Z,16.1
2018-09-13T18:45:02.402Z,16.1
2018-09-13T19:00:02.740Z,16.1
2018-09-13T19:15:03.093Z,16.1
2018-09-13T19:30:02.510Z,16.1
2018-09-13T19:45:02.850Z,16.1
2018-09-13T20:00:03.263Z,16.1
2018-09-13T20:15:02.598Z,16
2018-09-13T20:30:02.977Z,16
2018-09-13T20:45:02.306Z,16
2018-09-13T21:00:02.613Z,16
2018-09-13T21:15:02.939Z,15.9
2018-09-13T21:30:02.335Z,15.9
2018-09-13T21:45:02.704Z,15.9
2018-09-13T22:00:03.338Z,15.9
2018-09-13T22:15:02.815Z,15.9
2018-09-13T22:30:03.209Z,15.8
2018-09-13T22:45:02.571Z,15.8
2018-09-13T23:00:04.628Z,15.8
2018-09-13T23:15:02.455Z,15.7
2018-09-13T23:30:02.973Z,15.7
2018-09-13T23:45:02.321Z,15.6
